Terminal Aerodrome Forecast
Issued by NWS Tulsa, OK

Home | Current Version | Previous Version | Text Only | Print | Product List | Glossary On
Versions: 1 2 3 4 5 6 7 8 9 10 11 12 13 14
030
FTUS44 KTSA 010520
TAFFSM
TAF
KFSM 010520Z 0106/0206 05005KT P6SM BKN250
      TEMPO 0108/0112 BKN025
     FM011200 02005KT P6SM VCSH BKN025 PROB30 0115/0121 3SM -TSRA
      BKN015CB
     FM012100 02007KT P6SM VCSH OVC050 PROB30 0121/0124 3SM -TSRA
      BKN030CB=

USA.gov is the U.S. government's official web portal to all federal, state and local government web resources and services.